Time;durP1;ratioP1;P1;durP2;ratioP2;P2;SDS_P1;SDS_P2;PMS_P1;PMS_P2;Temp;Humidity;BMP_temperature;BMP_pressure;BME280_temperature;BME280_humidity;BME280_pressure;Samples;Min_cycle;Max_cycle;Signal;HPM_P1;HPM_P2
2023/03/15 00:00:22;;;;;;;9.50;1.90;;;;;;;15.34;54.79;95130.69;4973183;28;20138;-27
2023/03/15 00:02:47;;;;;;;7.55;1.38;;;;;;;15.46;54.39;95126.03;4985176;28;20970;-27
2023/03/15 00:05:13;;;;;;;6.88;1.50;;;;;;;15.59;53.90;95131.84;5004551;28;20030;-27
2023/03/15 00:07:38;;;;;;;12.70;1.77;;;;;;;15.54;53.93;95131.81;5003607;28;20072;-27
2023/03/15 00:10:06;;;;;;;9.77;2.13;;;;;;;15.50;53.97;95120.34;5002138;28;20033;-27
2023/03/15 00:12:33;;;;;;;6.18;1.33;;;;;;;15.29;54.48;95115.03;4994658;28;20482;-27
2023/03/15 00:14:59;;;;;;;6.07;1.48;;;;;;;15.37;54.41;95126.25;4994650;28;20466;-27
2023/03/15 00:17:24;;;;;;;6.63;1.30;;;;;;;15.44;54.04;95117.59;4996727;28;20025;-27
2023/03/15 00:19:50;;;;;;;6.97;1.30;;;;;;;15.38;53.89;95125.75;4998579;28;20026;-27
2023/03/15 00:22:16;;;;;;;13.70;1.95;;;;;;;15.41;53.80;95119.31;5005236;28;20050;-27
2023/03/15 00:24:42;;;;;;;9.40;2.40;;;;;;;15.37;53.80;95120.78;4998485;28;20029;-27
2023/03/15 00:27:08;;;;;;;10.77;1.40;;;;;;;15.37;53.91;95118.06;4998956;28;20036;-27
2023/03/15 00:29:33;;;;;;;9.10;1.63;;;;;;;15.34;53.81;95124.47;4998316;28;20022;-27
2023/03/15 00:31:59;;;;;;;11.15;2.15;;;;;;;15.44;53.55;95112.88;5005593;28;20026;-27
2023/03/15 00:34:24;;;;;;;7.72;1.58;;;;;;;15.35;53.98;95118.53;5012051;28;20022;-27
2023/03/15 00:36:52;;;;;;;7.55;1.42;;;;;;;15.42;53.68;95112.63;4998282;28;20037;-27
2023/03/15 00:39:19;;;;;;;7.95;1.80;;;;;;;15.45;53.19;95108.16;4998765;28;20026;-27
2023/03/15 00:41:45;;;;;;;14.35;2.38;;;;;;;15.34;53.80;95111.56;4998187;28;20126;-27
2023/03/15 00:44:11;;;;;;;10.45;2.58;;;;;;;15.37;54.02;95107.88;5005153;28;20029;-27
2023/03/15 00:46:36;;;;;;;11.95;2.67;;;;;;;15.43;53.60;95107.91;5000863;28;20025;-27
2023/03/15 00:49:02;;;;;;;11.40;2.28;;;;;;;15.32;53.86;95103.16;5002140;28;20390;-27
2023/03/15 00:51:28;;;;;;;13.65;1.90;;;;;;;15.33;53.50;95101.88;5005812;28;20022;-27
2023/03/15 00:53:54;;;;;;;15.18;2.10;;;;;;;15.25;54.00;95100.84;4997806;28;20034;-27
2023/03/15 00:56:22;;;;;;;9.27;2.05;;;;;;;15.16;54.08;95094.84;4998051;28;20018;-27
2023/03/15 00:58:49;;;;;;;14.25;2.25;;;;;;;15.39;53.46;95102.66;5005144;28;20033;-27
2023/03/15 01:01:17;;;;;;;10.25;1.83;;;;;;;15.46;53.59;95099.47;4997864;28;20348;-27
2023/03/15 01:03:43;;;;;;;13.98;2.22;;;;;;;15.39;53.63;95099.94;4998271;28;20058;-27
2023/03/15 01:06:12;;;;;;;14.88;2.65;;;;;;;15.40;53.71;95103.41;4997760;28;20029;-27
2023/03/15 01:08:38;;;;;;;16.55;1.98;;;;;;;15.42;53.66;95093.50;4998683;28;20041;-27
2023/03/15 01:11:06;;;;;;;10.23;1.70;;;;;;;15.41;53.49;95099.44;5010718;28;20022;-27
2023/03/15 01:13:32;;;;;;;7.85;1.80;;;;;;;15.32;53.69;95111.34;4997677;28;20065;-27
2023/03/15 01:15:58;;;;;;;8.02;2.28;;;;;;;15.37;53.59;95107.13;4998290;28;20026;-27
2023/03/15 01:18:23;;;;;;;8.93;1.42;;;;;;;15.16;53.80;95111.97;4997483;28;20105;-27
2023/03/15 01:20:49;;;;;;;9.13;1.90;;;;;;;15.04;54.42;95115.88;4998180;28;20471;-27
2023/03/15 01:23:15;;;;;;;12.18;2.33;;;;;;;15.21;53.91;95110.50;4999868;28;20064;-27
2023/03/15 01:25:40;;;;;;;20.00;1.90;;;;;;;15.33;53.38;95107.34;5000890;28;20034;-27
2023/03/15 01:28:06;;;;;;;12.98;2.25;;;;;;;15.22;53.49;95112.75;5005770;28;20493;-27
2023/03/15 01:30:32;;;;;;;11.75;1.77;;;;;;;15.04;54.07;95119.38;4997200;28;20490;-27
2023/03/15 01:32:57;;;;;;;9.60;1.40;;;;;;;15.32;53.22;95108.59;4997887;28;20390;-27
2023/03/15 01:35:23;;;;;;;14.20;2.30;;;;;;;15.12;53.46;95108.72;4997338;28;20034;-27
2023/03/15 01:37:49;;;;;;;12.52;1.85;;;;;;;15.24;53.00;95107.56;5003768;28;20036;-27
2023/03/15 01:40:15;;;;;;;12.63;1.58;;;;;;;15.17;53.40;95104.53;5004563;28;20026;-27
2023/03/15 01:43:17;;;;;;;6.28;1.50;;;;;;;15.33;52.79;95099.16;4997049;28;20039;-27
2023/03/15 01:46:07;;;;;;;15.55;2.97;;;;;;;15.24;52.91;95093.91;4976007;28;20121;-27
2023/03/15 01:48:43;;;;;;;11.40;1.52;;;;;;;15.18;53.33;95095.88;4997497;28;20104;-27
2023/03/15 01:51:20;;;;;;;12.65;1.92;;;;;;;15.06;53.08;95095.06;5010545;28;20036;-27
2023/03/15 01:53:52;;;;;;;8.68;2.20;;;;;;;15.22;52.71;95090.16;5003642;28;20055;-27
2023/03/15 01:56:18;;;;;;;10.23;1.77;;;;;;;15.34;52.56;95095.19;4996899;28;20029;-27
2023/03/15 01:58:46;;;;;;;9.63;1.40;;;;;;;15.24;52.89;95093.91;5004100;28;20020;-27
2023/03/15 02:01:14;;;;;;;12.18;2.10;;;;;;;15.20;52.69;95092.66;5003447;28;20034;-27
2023/03/15 02:03:46;;;;;;;9.68;1.52;;;;;;;15.11;52.89;95096.31;5003489;28;20054;-27
2023/03/15 02:06:19;;;;;;;9.63;1.88;;;;;;;15.15;52.47;95090.63;4997010;28;20018;-27
2023/03/15 02:08:52;;;;;;;;;;;;;;;15.05;53.19;95081.88;4999222;28;20030;-27
2023/03/15 02:11:20;;;;;;;6.70;1.60;;;;;;;15.19;52.54;95088.41;5001388;28;19917;-27
2023/03/15 02:13:48;;;;;;;10.82;1.75;;;;;;;15.06;52.74;95084.13;5003461;28;20470;-27
2023/03/15 02:16:13;;;;;;;9.50;1.42;;;;;;;14.88;53.14;95100.13;5001859;28;20152;-27
2023/03/15 02:18:39;;;;;;;9.57;2.15;;;;;;;15.02;52.45;95096.50;4999064;28;20108;-27
2023/03/15 02:21:13;;;;;;;5.35;1.40;;;;;;;14.96;52.61;95106.66;4997399;28;20454;-27
2023/03/15 02:23:38;;;;;;;7.40;1.50;;;;;;;14.97;52.67;95113.59;4996253;28;20494;-27
2023/03/15 02:26:07;;;;;;;13.82;2.33;;;;;;;15.19;52.17;95113.00;4996495;28;20027;-27
2023/03/15 02:28:33;;;;;;;10.05;2.67;;;;;;;14.89;52.37;95129.69;5001527;28;20030;-27
2023/03/15 02:30:58;;;;;;;8.07;1.90;;;;;;;14.85;53.00;95140.06;5003658;28;20038;-27
2023/03/15 02:33:28;;;;;;;19.10;2.65;;;;;;;15.12;52.39;95130.56;5003334;28;20025;-27
2023/03/15 02:35:54;;;;;;;7.85;1.85;;;;;;;15.09;52.10;95132.28;4996032;28;20034;-27
2023/03/15 02:38:21;;;;;;;12.70;1.42;;;;;;;15.05;52.68;95147.41;4996823;28;20113;-27
2023/03/15 02:40:47;;;;;;;9.63;1.73;;;;;;;15.09;52.44;95142.47;5001718;28;20038;-27
2023/03/15 02:43:18;;;;;;;13.82;1.60;;;;;;;15.23;52.29;95146.28;5003533;28;20025;-27
2023/03/15 02:45:45;;;;;;;10.20;1.80;;;;;;;15.13;52.25;95145.72;4996194;28;20030;-27
2023/03/15 02:48:12;;;;;;;8.93;1.50;;;;;;;14.88;52.86;95160.94;4996094;28;20039;-27
2023/03/15 02:50:37;;;;;;;9.70;2.03;;;;;;;15.04;52.62;95157.59;4998792;28;20030;-27
2023/03/15 02:53:03;;;;;;;11.43;1.60;;;;;;;14.88;53.21;95154.72;5000140;28;20038;-27
2023/03/15 02:55:31;;;;;;;12.73;1.90;;;;;;;14.92;52.79;95155.25;4995705;28;20114;-27
2023/03/15 02:57:57;;;;;;;9.18;1.40;;;;;;;15.01;52.64;95158.56;5001569;28;20037;-27
2023/03/15 03:00:23;;;;;;;13.93;2.10;;;;;;;15.08;52.67;95160.09;5002158;28;20022;-27
2023/03/15 03:02:48;;;;;;;9.75;1.55;;;;;;;15.10;52.64;95171.25;4995941;28;20038;-26
2023/03/15 03:05:15;;;;;;;11.30;2.25;;;;;;;15.07;52.76;95173.00;4995428;28;20018;-27
2023/03/15 03:07:44;;;;;;;9.95;1.88;;;;;;;15.13;52.48;95169.56;4994937;28;20440;-27
2023/03/15 03:10:13;;;;;;;9.25;1.98;;;;;;;14.91;53.15;95170.16;4994556;28;20022;-27
2023/03/15 03:12:38;;;;;;;7.95;1.95;;;;;;;14.86;53.26;95162.66;5002387;28;20058;-27
2023/03/15 03:15:05;;;;;;;7.55;1.77;;;;;;;14.91;53.26;95161.94;5002718;28;20065;-27
2023/03/15 03:17:30;;;;;;;9.35;1.30;;;;;;;14.68;53.48;95169.22;4995387;28;20120;-27
2023/03/15 03:19:56;;;;;;;9.95;1.40;;;;;;;14.89;52.94;95178.81;4995981;28;20053;-27
2023/03/15 03:22:23;;;;;;;12.77;2.38;;;;;;;14.85;53.25;95178.28;4998816;28;20022;-27
2023/03/15 03:24:50;;;;;;;9.25;2.10;;;;;;;14.95;53.21;95181.59;4997800;28;20026;-27
2023/03/15 03:27:16;;;;;;;8.73;1.70;;;;;;;15.06;53.02;95170.75;5002592;28;20022;-27
2023/03/15 03:29:42;;;;;;;11.45;2.00;;;;;;;15.09;52.82;95175.22;4995458;28;20022;-27
2023/03/15 03:32:08;;;;;;;9.45;1.70;;;;;;;14.96;52.85;95166.72;4997089;28;20372;-27
2023/03/15 03:34:34;;;;;;;9.27;1.95;;;;;;;15.16;52.65;95169.34;5001116;28;20027;-27
2023/03/15 03:37:00;;;;;;;9.40;1.80;;;;;;;14.85;53.02;95177.53;5001548;28;20386;-27
2023/03/15 03:39:25;;;;;;;15.40;2.00;;;;;;;14.86;53.35;95174.31;5001845;28;20097;-27
2023/03/15 03:41:51;;;;;;;10.02;1.40;;;;;;;14.93;53.42;95173.13;5000375;28;20097;-27
2023/03/15 03:44:16;;;;;;;11.20;1.73;;;;;;;15.12;52.81;95159.84;4997259;28;20052;-27
2023/03/15 03:46:42;;;;;;;12.63;1.75;;;;;;;14.91;53.63;95153.75;4995469;28;20108;-27
2023/03/15 03:49:07;;;;;;;15.65;2.13;;;;;;;15.01;52.88;95158.56;4995034;28;20030;-27
2023/03/15 03:51:33;;;;;;;6.13;1.50;;;;;;;14.75;53.54;95163.31;5004690;28;20092;-27
2023/03/15 03:54:00;;;;;;;10.35;2.22;;;;;;;15.00;53.37;95154.31;5004343;28;20030;-27
2023/03/15 03:56:26;;;;;;;11.68;2.13;;;;;;;15.16;53.12;95155.69;5006064;28;20033;-27
2023/03/15 03:58:51;;;;;;;9.15;1.90;;;;;;;14.93;53.75;95159.50;4999228;28;20019;-27
2023/03/15 04:01:18;;;;;;;9.40;2.50;;;;;;;15.01;53.48;95163.25;4998914;28;20018;-27
2023/03/15 04:03:43;;;;;;;13.77;3.50;;;;;;;15.10;53.24;95166.56;4999186;28;20064;-27
2023/03/15 04:06:09;;;;;;;20.00;7.22;;;;;;;14.94;53.89;95161.75;5005471;28;20030;-27
2023/03/15 04:08:34;;;;;;;17.20;5.13;;;;;;;14.93;54.09;95171.16;5005760;28;20029;-27
2023/03/15 04:11:02;;;;;;;12.88;3.13;;;;;;;15.16;53.55;95169.34;4998626;28;20029;-27
2023/03/15 04:13:28;;;;;;;8.93;2.28;;;;;;;14.95;53.99;95170.69;5003714;28;20018;-27
2023/03/15 04:15:56;;;;;;;9.20;3.03;;;;;;;14.93;54.15;95175.88;5007000;28;20026;-27
2023/03/15 04:18:22;;;;;;;15.32;2.60;;;;;;;14.93;54.50;95178.59;5002958;28;20120;-27
2023/03/15 04:20:48;;;;;;;11.35;2.30;;;;;;;14.92;54.21;95182.56;5000318;28;20032;-27
2023/03/15 04:23:14;;;;;;;15.30;3.03;;;;;;;14.91;54.66;95179.09;5005813;28;20097;-27
2023/03/15 04:25:40;;;;;;;13.82;2.30;;;;;;;14.82;54.80;95173.06;4998676;28;20034;-27
2023/03/15 04:28:09;;;;;;;10.55;2.83;;;;;;;14.93;54.80;95170.41;4998154;28;20023;-27
2023/03/15 04:30:37;;;;;;;11.35;2.45;;;;;;;15.08;54.39;95169.00;4998381;28;20530;-27
2023/03/15 04:33:02;;;;;;;10.88;1.90;;;;;;;14.97;54.60;95165.47;5006055;28;20445;-27
2023/03/15 04:35:30;;;;;;;15.68;2.70;;;;;;;14.91;54.94;95165.44;5004835;28;20026;-26
2023/03/15 04:37:56;;;;;;;13.07;2.58;;;;;;;14.92;54.67;95174.38;4998311;28;20018;-27
2023/03/15 04:40:23;;;;;;;13.00;2.05;;;;;;;15.02;54.58;95178.41;4998719;28;20517;-27
2023/03/15 04:42:50;;;;;;;9.55;1.88;;;;;;;14.81;55.38;95171.56;4998025;28;20036;-27
2023/03/15 04:45:16;;;;;;;13.30;2.25;;;;;;;14.95;54.79;95173.41;4998740;28;20057;-27
2023/03/15 04:47:41;;;;;;;12.52;2.17;;;;;;;14.86;55.13;95181.75;5001371;28;20030;-27
2023/03/15 04:50:08;;;;;;;14.88;2.35;;;;;;;15.01;54.78;95179.66;5001365;28;20077;-27
2023/03/15 04:52:33;;;;;;;9.25;2.03;;;;;;;14.89;55.13;95172.59;5005064;28;20033;-27
2023/03/15 04:54:59;;;;;;;14.75;2.53;;;;;;;15.01;54.77;95185.09;4998122;28;20026;-27
2023/03/15 04:57:24;;;;;;;7.10;1.73;;;;;;;14.96;55.14;95194.75;4998523;28;20474;-27
2023/03/15 04:59:51;;;;;;;16.55;2.63;;;;;;;14.82;55.43;95197.63;4997971;28;20083;-27
2023/03/15 05:02:16;;;;;;;13.70;2.67;;;;;;;14.97;55.20;95212.63;5004061;28;20042;-27
2023/03/15 05:04:42;;;;;;;12.30;2.67;;;;;;;14.82;55.82;95216.72;5005080;28;20386;-27
2023/03/15 05:07:08;;;;;;;8.40;1.90;;;;;;;14.91;55.44;95214.56;4997668;28;20391;-27
2023/03/15 05:09:37;;;;;;;7.80;1.73;;;;;;;14.85;56.02;95221.19;4998122;28;20450;-27
2023/03/15 05:12:06;;;;;;;12.48;2.22;;;;;;;14.78;55.77;95225.13;4997605;28;20018;-27
2023/03/15 05:14:32;;;;;;;8.80;2.17;;;;;;;14.88;56.01;95231.16;4996705;28;20022;-27
2023/03/15 05:16:58;;;;;;;16.02;2.22;;;;;;;14.90;55.62;95236.88;4999280;28;20394;-27
2023/03/15 05:19:27;;;;;;;12.27;2.15;;;;;;;14.86;55.95;95255.44;5002596;28;20018;-27
2023/03/15 05:21:53;;;;;;;10.48;1.90;;;;;;;15.08;55.18;95242.03;4998219;28;20026;-27
2023/03/15 05:24:19;;;;;;;9.80;2.20;;;;;;;14.88;55.71;95250.25;4997444;28;20015;-27
2023/03/15 05:26:46;;;;;;;14.93;2.30;;;;;;;15.00;55.20;95249.88;4997539;28;20022;-27
2023/03/15 05:29:12;;;;;;;13.23;2.45;;;;;;;14.81;55.39;95246.00;5004723;28;20095;-27
2023/03/15 05:31:38;;;;;;;13.02;2.10;;;;;;;14.94;55.46;95257.28;5005552;28;20027;-27
2023/03/15 05:34:04;;;;;;;11.55;2.78;;;;;;;14.85;55.42;95253.94;5005510;28;20429;-27
2023/03/15 05:36:30;;;;;;;13.25;2.30;;;;;;;14.87;55.28;95256.94;4997155;28;20099;-27
2023/03/15 05:38:56;;;;;;;12.25;2.63;;;;;;;14.80;55.65;95263.59;4997315;28;20022;-27
2023/03/15 05:41:22;;;;;;;11.77;2.70;;;;;;;14.89;55.18;95265.41;5004071;28;20381;-27
2023/03/15 05:43:51;;;;;;;16.08;3.67;;;;;;;14.74;55.72;95266.25;5001580;28;20029;-27
2023/03/15 05:46:17;;;;;;;11.60;2.97;;;;;;;14.78;55.40;95278.94;4999190;28;20045;-27
2023/03/15 05:48:42;;;;;;;12.02;2.50;;;;;;;14.89;55.11;95287.25;4997015;28;20069;-27
2023/03/15 05:51:08;;;;;;;12.88;3.22;;;;;;;14.93;55.00;95299.47;4997072;28;20030;-27
2023/03/15 05:53:33;;;;;;;12.27;2.92;;;;;;;14.87;55.43;95306.84;4998540;28;20041;-27
2023/03/15 05:55:59;;;;;;;11.80;2.47;;;;;;;14.81;55.26;95313.47;5002116;28;20114;-27
2023/03/15 05:58:25;;;;;;;9.75;3.08;;;;;;;14.84;55.46;95312.50;5004076;28;20018;-27
2023/03/15 06:00:50;;;;;;;12.30;2.53;;;;;;;14.94;55.09;95316.59;4995226;28;20070;-27
2023/03/15 06:03:15;;;;;;;9.70;2.67;;;;;;;14.89;55.33;95323.50;4996430;28;20395;-27
2023/03/15 06:05:42;;;;;;;12.32;2.22;;;;;;;14.93;55.10;95320.56;4997349;28;20076;-27
2023/03/15 06:08:07;;;;;;;10.10;2.40;;;;;;;14.82;55.35;95323.16;4996664;28;20030;-27
2023/03/15 06:10:33;;;;;;;12.88;3.47;;;;;;;14.84;55.17;95329.63;5002983;28;20025;-27
2023/03/15 06:12:59;;;;;;;8.13;3.30;;;;;;;14.70;55.54;95336.69;5003314;28;21184;-27
2023/03/15 06:15:24;;;;;;;9.43;2.35;;;;;;;14.79;55.18;95333.06;5002927;28;20026;-27
2023/03/15 06:17:50;;;;;;;15.23;2.97;;;;;;;14.78;55.56;95347.19;4997214;28;20018;-27
2023/03/15 06:20:16;;;;;;;11.55;2.45;;;;;;;14.82;55.75;95358.66;4996527;28;20018;-27
2023/03/15 06:22:41;;;;;;;16.60;3.10;;;;;;;14.76;55.78;95357.81;4996366;28;20174;-27
2023/03/15 06:25:08;;;;;;;13.98;3.13;;;;;;;14.93;55.29;95356.03;5003370;28;20084;-27
2023/03/15 06:27:34;;;;;;;14.20;3.10;;;;;;;14.71;55.46;95354.56;5002714;28;20025;-27
2023/03/15 06:30:00;;;;;;;10.77;2.80;;;;;;;14.87;55.33;95352.50;4996913;28;20022;-27
2023/03/15 06:32:25;;;;;;;12.35;2.83;;;;;;;14.74;55.77;95353.59;4996358;28;20452;-27
2023/03/15 06:34:51;;;;;;;11.75;3.22;;;;;;;14.88;55.38;95357.47;4996140;28;20022;-27
2023/03/15 06:37:16;;;;;;;9.18;2.25;;;;;;;14.94;54.93;95360.28;5003001;28;20029;-27
2023/03/15 06:39:43;;;;;;;12.80;3.28;;;;;;;14.78;55.65;95358.84;5000689;28;20030;-27
2023/03/15 06:42:11;;;;;;;8.73;2.72;;;;;;;14.60;56.05;95359.88;4998398;28;20054;-27
2023/03/15 06:44:37;;;;;;;10.43;2.88;;;;;;;14.78;55.90;95356.13;4995836;28;20030;-27
2023/03/15 06:47:03;;;;;;;14.00;3.13;;;;;;;14.98;55.36;95352.59;4995924;28;20030;-27
2023/03/15 06:49:29;;;;;;;12.05;3.72;;;;;;;14.92;55.88;95362.72;4997520;28;20052;-27
2023/03/15 06:51:55;;;;;;;8.10;2.78;;;;;;;14.95;55.64;95369.97;5006946;28;20030;-27
2023/03/15 06:54:21;;;;;;;10.70;3.38;;;;;;;14.79;56.28;95360.34;5002641;28;20031;-27
2023/03/15 06:56:46;;;;;;;13.30;3.80;;;;;;;14.99;55.71;95371.25;4995783;28;20436;-27
2023/03/15 06:59:12;;;;;;;7.90;3.03;;;;;;;14.83;56.04;95369.09;4995619;28;20374;-27
2023/03/15 07:01:37;;;;;;;8.77;2.70;;;;;;;15.00;55.21;95372.75;4996153;28;20073;-27
2023/03/15 07:04:03;;;;;;;6.63;2.40;;;;;;;15.00;55.15;95377.44;5002345;28;20026;-27
2023/03/15 07:06:28;;;;;;;8.05;2.58;;;;;;;14.96;55.05;95376.94;5002089;28;20025;-27
2023/03/15 07:08:54;;;;;;;8.70;2.67;;;;;;;15.05;54.40;95385.72;5002704;28;20017;-27
2023/03/15 07:11:20;;;;;;;11.13;2.70;;;;;;;15.14;54.47;95387.53;4995491;28;20037;-27
2023/03/15 07:13:45;;;;;;;10.40;3.00;;;;;;;15.04;54.75;95395.13;4996078;28;20037;-27
2023/03/15 07:16:11;;;;;;;8.77;2.60;;;;;;;14.99;55.33;95403.25;4998673;28;20028;-27
2023/03/15 07:18:36;;;;;;;7.45;1.98;;;;;;;14.91;55.33;95413.09;4998374;28;20030;-27
2023/03/15 07:21:03;;;;;;;5.75;2.05;;;;;;;15.20;54.55;95421.13;5002886;28;20156;-27
2023/03/15 07:23:30;;;;;;;4.68;1.55;;;;;;;15.13;54.08;95412.59;4995356;28;20030;-27
2023/03/15 07:25:55;;;;;;;6.85;2.00;;;;;;;14.92;55.15;95422.78;4996693;28;20030;-27
2023/03/15 07:28:23;;;;;;;5.53;1.92;;;;;;;15.01;54.92;95428.09;4995299;28;20359;-27
2023/03/15 07:30:52;;;;;;;4.65;1.77;;;;;;;15.03;54.69;95423.66;4995117;28;20482;-27
2023/03/15 07:33:21;;;;;;;10.13;1.98;;;;;;;15.14;54.77;95433.97;5001580;28;20413;-26
2023/03/15 07:35:49;;;;;;;7.43;2.03;;;;;;;15.04;55.31;95429.88;4995191;28;20019;-27
2023/03/15 07:38:14;;;;;;;5.47;1.70;;;;;;;14.99;54.61;95433.28;4995952;28;20030;-27
2023/03/15 07:40:39;;;;;;;5.43;1.75;;;;;;;15.07;54.32;95434.38;4995072;28;20084;-27
2023/03/15 07:43:05;;;;;;;2.78;1.42;;;;;;;15.33;54.11;95445.34;4995412;28;20022;-27
2023/03/15 07:45:31;;;;;;;9.55;1.80;;;;;;;14.94;54.99;95451.13;4997468;28;20109;-26
2023/03/15 07:47:56;;;;;;;4.70;2.00;;;;;;;15.14;54.78;95449.59;4999902;28;20066;-27
2023/03/15 07:50:22;;;;;;;6.50;1.63;;;;;;;15.19;54.40;95459.84;5003171;28;20026;-27
2023/03/15 07:52:47;;;;;;;5.47;2.03;;;;;;;15.03;54.77;95472.06;5001415;28;20030;-27
2023/03/15 07:55:13;;;;;;;3.90;1.50;;;;;;;15.10;54.54;95471.63;4995092;28;20030;-27
2023/03/15 07:57:38;;;;;;;4.63;1.50;;;;;;;15.05;54.13;95480.53;5002911;28;20029;-26
2023/03/15 08:00:05;;;;;;;5.32;1.67;;;;;;;15.21;53.91;95493.63;5001713;28;20022;-27
2023/03/15 08:02:30;;;;;;;6.32;1.75;;;;;;;15.20;53.81;95491.38;5001907;28;20482;-26
2023/03/15 08:04:56;;;;;;;3.80;1.33;;;;;;;15.22;54.29;95494.38;4995044;28;20077;-27
2023/03/15 08:07:21;;;;;;;2.70;1.35;;;;;;;15.19;54.35;95498.06;4994923;28;20044;-27
2023/03/15 08:09:47;;;;;;;3.28;1.42;;;;;;;15.24;54.06;95492.66;4995714;28;20034;-26
2023/03/15 08:12:13;;;;;;;7.63;1.95;;;;;;;15.28;54.86;95504.13;4994741;28;20065;-26
2023/03/15 08:14:38;;;;;;;4.32;1.38;;;;;;;15.24;54.09;95509.06;5001934;28;20042;-26
2023/03/15 08:17:04;;;;;;;3.58;1.40;;;;;;;15.22;54.73;95513.50;5002191;28;20054;-26
2023/03/15 08:19:29;;;;;;;6.22;1.20;;;;;;;15.43;53.93;95515.75;4995922;28;20072;-27
2023/03/15 08:21:54;;;;;;;4.00;1.33;;;;;;;15.37;54.19;95511.44;5001510;28;20026;-27
2023/03/15 08:24:23;;;;;;;3.22;1.40;;;;;;;15.45;53.49;95513.25;4994694;28;20382;-27
2023/03/15 08:26:49;;;;;;;2.58;1.17;;;;;;;15.33;54.16;95519.09;4994960;28;20029;-27
2023/03/15 08:29:15;;;;;;;4.35;1.13;;;;;;;15.20;54.39;95530.38;5008380;28;20097;-27
2023/03/15 08:31:40;;;;;;;3.25;1.20;;;;;;;15.38;54.06;95518.41;4999061;28;20176;-27
2023/03/15 08:34:06;;;;;;;3.45;1.45;;;;;;;15.40;53.33;95503.03;5003880;28;20038;-27
2023/03/15 08:36:31;;;;;;;3.53;1.17;;;;;;;15.41;53.57;95523.66;4994884;28;20022;-27
2023/03/15 08:38:57;;;;;;;4.57;0.90;;;;;;;15.46;53.39;95514.75;4997495;28;20454;-27
2023/03/15 08:41:22;;;;;;;3.75;1.20;;;;;;;15.49;53.70;95517.78;5000137;28;20018;-27
2023/03/15 08:43:48;;;;;;;4.47;1.25;;;;;;;15.51;53.95;95526.25;5003617;28;20549;-27
2023/03/15 08:46:13;;;;;;;2.70;0.80;;;;;;;15.46;54.12;95519.47;5005696;28;20029;-27
2023/03/15 08:48:40;;;;;;;1.63;0.93;;;;;;;15.60;53.52;95521.41;4997920;28;20026;-27
2023/03/15 08:51:07;;;;;;;4.13;0.93;;;;;;;15.70;53.06;95527.50;5004714;28;20537;-27
2023/03/15 08:53:33;;;;;;;2.65;1.10;;;;;;;15.60;55.05;95531.59;4998896;28;20040;-27
2023/03/15 08:55:59;;;;;;;4.88;0.88;;;;;;;15.87;53.98;95520.19;5009427;28;20108;-26
2023/03/15 08:58:25;;;;;;;3.25;1.05;;;;;;;15.94;53.96;95530.72;5007220;28;20121;-27
2023/03/15 09:00:51;;;;;;;1.70;0.60;;;;;;;15.62;53.42;95531.84;4996647;28;20526;-27
2023/03/15 09:03:18;;;;;;;2.65;0.80;;;;;;;15.62;52.56;95529.13;4997621;28;20553;-27
2023/03/15 09:05:43;;;;;;;2.30;0.90;;;;;;;15.80;53.74;95547.97;4998541;28;20037;-27
2023/03/15 09:08:08;;;;;;;2.30;0.80;;;;;;;15.81;53.20;95538.53;5001730;28;20105;-27
2023/03/15 09:10:34;;;;;;;1.58;0.90;;;;;;;15.96;53.02;95541.91;4999898;28;20029;-27
2023/03/15 09:13:01;;;;;;;1.85;0.85;;;;;;;15.82;53.07;95542.03;5004781;28;20022;-27
2023/03/15 09:15:26;;;;;;;3.50;0.80;;;;;;;15.87;53.53;95542.06;5005009;28;20394;-27
2023/03/15 09:17:51;;;;;;;4.10;0.90;;;;;;;15.91;53.30;95553.53;5003090;28;20031;-27
2023/03/15 09:20:20;;;;;;;2.15;0.68;;;;;;;16.05;53.15;95555.44;4997566;28;20054;-27
2023/03/15 09:22:54;;;;;;;2.67;0.68;;;;;;;15.94;53.79;95558.06;5004360;28;20101;-27
2023/03/15 09:25:20;;;;;;;2.08;0.60;;;;;;;15.97;52.78;95562.53;5004321;28;20053;-27
2023/03/15 09:27:46;;;;;;;4.95;1.42;;;;;;;15.95;53.01;95558.81;4997573;28;20046;-27
2023/03/15 09:30:12;;;;;;;4.80;1.00;;;;;;;15.88;54.18;95565.44;4998233;28;20522;-27
2023/03/15 09:32:38;;;;;;;4.15;1.02;;;;;;;16.04;53.35;95559.41;5002481;28;20064;-27
2023/03/15 09:35:06;;;;;;;2.08;0.90;;;;;;;16.15;53.27;95572.41;5006365;28;20109;-27
2023/03/15 09:37:32;;;;;;;2.78;0.75;;;;;;;16.28;53.68;95563.84;5000610;28;20022;-27
2023/03/15 09:39:58;;;;;;;3.55;0.70;;;;;;;16.10;53.36;95573.84;5000512;28;20030;-27
2023/03/15 09:42:56;;;;;;;2.67;0.98;;;;;;;16.12;52.44;95565.91;4997698;28;20021;-27
2023/03/15 09:45:37;;;;;;;1.35;0.75;;;;;;;16.20;52.82;95570.94;4993945;28;20034;-26
2023/03/15 09:48:14;;;;;;;4.95;0.70;;;;;;;16.04;52.58;95584.00;5003135;28;20022;-27
2023/03/15 09:50:49;;;;;;;3.45;0.88;;;;;;;16.21;53.28;95594.34;4998249;28;20017;-27
2023/03/15 09:53:22;;;;;;;3.42;0.52;;;;;;;16.25;52.22;95597.63;4999845;28;20038;-27
2023/03/15 09:55:50;;;;;;;6.20;1.45;;;;;;;16.02;52.74;95597.41;5000484;28;20030;-27
2023/03/15 09:58:23;;;;;;;2.55;0.55;;;;;;;16.21;53.07;95603.31;4999991;28;20105;-27
2023/03/15 10:00:53;;;;;;;1.58;0.70;;;;;;;16.07;52.91;95601.44;5004120;28;20113;-27
2023/03/15 10:03:28;;;;;;;1.58;0.60;;;;;;;16.15;53.03;95608.72;4996648;28;20486;-27
2023/03/15 10:06:00;;;;;;;2.95;0.70;;;;;;;15.98;52.79;95618.75;5003766;28;20026;-26
2023/03/15 10:08:25;;;;;;;1.73;0.45;;;;;;;16.06;52.41;95619.84;5003035;28;20081;-27
2023/03/15 10:11:13;;;;;;;0.90;0.60;;;;;;;15.95;52.96;95622.44;4997018;28;20029;-27
2023/03/15 10:14:21;;;;;;;1.92;0.98;;;;;;;15.93;51.66;95618.69;5005535;28;20466;-27
2023/03/15 10:16:49;;;;;;;1.52;0.40;;;;;;;15.96;53.96;95631.38;4993091;28;20034;-27
2023/03/15 10:19:34;;;;;;;2.83;0.70;;;;;;;16.12;51.73;95628.84;5002583;28;20089;-27
2023/03/15 10:22:12;;;;;;;1.40;0.50;;;;;;;15.88;52.21;95627.56;5003289;28;20019;-27
2023/03/15 10:24:55;;;;;;;4.57;0.65;;;;;;;15.92;52.63;95628.13;4996364;28;20034;-27
2023/03/15 10:27:24;;;;;;;0.75;0.50;;;;;;;16.06;51.45;95630.03;4996177;28;20062;-27
2023/03/15 10:29:53;;;;;;;1.08;0.60;;;;;;;16.12;51.74;95626.09;4996144;28;20109;-27
2023/03/15 10:32:24;;;;;;;2.53;0.55;;;;;;;16.28;51.73;95624.78;5006095;28;20053;-27
2023/03/15 10:34:56;;;;;;;1.42;0.50;;;;;;;16.28;51.66;95634.97;5006491;28;20029;-27
2023/03/15 10:37:23;;;;;;;1.50;0.60;;;;;;;16.24;51.73;95634.41;4994733;28;20356;-27
2023/03/15 10:39:54;;;;;;;0.80;0.40;;;;;;;16.09;51.85;95634.50;4996018;28;20087;-27
2023/03/15 10:42:31;;;;;;;2.15;0.60;;;;;;;16.12;51.13;95628.84;4996722;28;20027;-27
2023/03/15 10:44:59;;;;;;;1.23;0.40;;;;;;;16.31;51.76;95634.00;4996271;28;20030;-27
2023/03/15 10:47:26;;;;;;;1.63;0.65;;;;;;;16.37;50.76;95632.06;5003221;28;20508;-27
2023/03/15 10:49:58;;;;;;;1.50;0.55;;;;;;;16.26;50.68;95648.38;5000272;28;20053;-27
2023/03/15 10:52:37;;;;;;;1.93;0.80;;;;;;;16.42;51.88;95640.34;4997769;28;20022;-27
2023/03/15 10:55:06;;;;;;;0.75;0.40;;;;;;;16.43;51.28;95643.81;4995965;28;20390;-26
2023/03/15 10:57:54;;;;;;;1.73;0.40;;;;;;;16.41;51.31;95649.78;5003498;28;20026;-26
2023/03/15 11:00:30;;;;;;;1.05;0.40;;;;;;;16.39;51.40;95656.97;5002256;28;20374;-26
2023/03/15 11:03:04;;;;;;;1.25;0.40;;;;;;;16.38;51.46;95645.25;4998196;28;20074;-26
2023/03/15 11:05:42;;;;;;;0.55;0.40;;;;;;;16.40;51.21;95645.53;4998480;28;20049;-27
2023/03/15 11:08:17;;;;;;;0.68;0.43;;;;;;;16.38;50.78;95644.50;4995499;28;20029;-27
2023/03/15 11:10:45;;;;;;;0.80;0.50;;;;;;;16.37;51.48;95651.22;4996299;28;20037;-26
2023/03/15 11:13:11;;;;;;;1.15;0.55;;;;;;;16.54;51.27;95649.41;5004587;28;20025;-27
2023/03/15 11:15:38;;;;;;;1.60;0.50;;;;;;;16.50;50.77;95652.34;5005613;28;20058;-26
2023/03/15 11:18:04;;;;;;;1.02;0.60;;;;;;;16.53;51.14;95653.38;5002635;28;20026;-26
2023/03/15 11:20:37;;;;;;;1.23;0.70;;;;;;;16.27;51.88;95653.38;4995390;28;20018;-27
2023/03/15 11:23:21;;;;;;;1.77;0.52;;;;;;;16.52;51.27;95640.91;4996256;28;20474;-27
2023/03/15 11:25:46;;;;;;;0.98;0.40;;;;;;;16.41;51.19;95638.06;4995248;28;20390;-26
2023/03/15 11:28:18;;;;;;;1.40;0.70;;;;;;;16.45;50.97;95642.09;4995821;28;20108;-26
2023/03/15 11:30:45;;;;;;;1.25;0.60;;;;;;;16.42;51.04;95647.78;5002201;28;20116;-26
2023/03/15 11:33:28;;;;;;;1.63;0.43;;;;;;;16.57;50.96;95651.16;5001991;28;20022;-27